Time;durP1;ratioP1;P1;durP2;ratioP2;P2;SDS_P1;SDS_P2;PMS_P1;PMS_P2;Temp;Humidity;BMP_temperature;BMP_pressure;BME280_temperature;BME280_humidity;BME280_pressure;Samples;Min_cycle;Max_cycle;Signal;HPM_P1;HPM_P2
2022/07/28 00:00:27;;;;;;;3.55;1.10;;;;;;;16.17;nan;100859.72;2024455;29;20072;-70
2022/07/28 00:01:28;;;;;;;7.22;1.70;;;;;;;16.15;nan;100855.72;2025459;29;20048;-70
2022/07/28 00:02:33;;;;;;;5.72;1.42;;;;;;;16.17;nan;100854.28;2032819;29;20063;-70
2022/07/28 00:03:40;;;;;;;7.68;1.50;;;;;;;16.21;nan;100860.69;2033076;29;20488;-71
2022/07/28 00:04:43;;;;;;;5.10;1.30;;;;;;;16.22;nan;100862.28;2032912;29;20056;-71
2022/07/28 00:05:46;;;;;;;5.50;1.30;;;;;;;16.18;nan;100860.50;2032387;29;20079;-71
2022/07/28 00:06:47;;;;;;;2.97;1.30;;;;;;;16.17;nan;100859.72;2032443;29;20055;-71
2022/07/28 00:07:49;;;;;;;4.20;1.40;;;;;;;16.16;nan;100860.81;2031920;29;20039;-71
2022/07/28 00:08:53;;;;;;;5.22;1.40;;;;;;;16.18;nan;100860.50;2041332;29;20046;-70
2022/07/28 00:09:58;;;;;;;4.97;1.45;;;;;;;16.19;nan;100864.81;2040973;29;20051;-70
2022/07/28 00:11:05;;;;;;;6.00;1.70;;;;;;;16.22;nan;100867.72;2032565;29;20060;-70
2022/07/28 00:12:07;;;;;;;4.38;1.55;;;;;;;16.18;nan;100863.22;2025858;29;20048;-70
2022/07/28 00:13:13;;;;;;;5.88;1.38;;;;;;;16.15;nan;100861.94;2040503;29;20056;-70
2022/07/28 00:14:15;;;;;;;4.75;1.48;;;;;;;16.15;nan;100863.84;2040011;29;20044;-70
2022/07/28 00:15:17;;;;;;;5.75;1.75;;;;;;;16.18;nan;100871.38;2032740;29;20415;-71
2022/07/28 00:16:19;;;;;;;4.90;1.23;;;;;;;16.18;nan;100857.81;2048377;29;20043;-71
2022/07/28 00:17:24;;;;;;;4.65;1.40;;;;;;;16.17;nan;100867.03;2048237;29;20035;-70
2022/07/28 00:18:25;;;;;;;5.75;1.33;;;;;;;16.20;nan;100879.97;2048839;29;20050;-69
2022/07/28 00:19:27;;;;;;;5.57;1.70;;;;;;;16.22;nan;100869.63;2029621;29;20393;-70
2022/07/28 00:20:31;;;;;;;5.45;1.77;;;;;;;16.22;nan;100869.63;2019518;29;20044;-71
2022/07/28 00:21:33;;;;;;;3.80;1.40;;;;;;;16.22;nan;100872.34;2033316;29;20056;-71
2022/07/28 00:22:42;;;;;;;5.65;1.70;;;;;;;16.19;nan;100879.19;2041290;29;20414;-69
2022/07/28 00:23:44;;;;;;;5.73;1.37;;;;;;;16.23;nan;100868.50;2041220;29;20048;-69
2022/07/28 00:24:46;;;;;;;5.68;1.63;;;;;;;16.21;nan;100874.25;2024729;29;20780;-69
2022/07/28 00:25:48;;;;;;;6.13;1.50;;;;;;;16.19;nan;100865.63;2024914;29;20179;-69
2022/07/28 00:26:53;;;;;;;6.43;1.67;;;;;;;16.19;nan;100872.97;2041022;29;20050;-70
2022/07/28 00:27:54;;;;;;;5.93;1.60;;;;;;;16.20;nan;100869.13;2032310;29;20112;-69
2022/07/28 00:29:03;;;;;;;5.97;1.55;;;;;;;16.20;nan;100871.84;2025077;29;20100;-69
2022/07/28 00:30:06;;;;;;;5.75;1.50;;;;;;;16.18;nan;100879.50;2030656;29;20055;-69
2022/07/28 00:31:07;;;;;;;5.60;1.67;;;;;;;16.18;nan;100874.88;2032634;29;20036;-69
2022/07/28 00:32:10;;;;;;;6.53;1.80;;;;;;;16.18;nan;100874.88;2032578;29;20110;-69
2022/07/28 00:33:13;;;;;;;4.80;1.42;;;;;;;16.17;nan;100876.00;2032799;29;20032;-69
2022/07/28 00:34:17;;;;;;;3.15;1.10;;;;;;;16.19;nan;100875.69;2026033;29;20036;-70
2022/07/28 00:35:18;;;;;;;4.05;1.77;;;;;;;16.17;nan;100869.75;2024957;29;20584;-69
2022/07/28 00:36:20;;;;;;;5.07;1.48;;;;;;;16.17;nan;100881.41;2032757;29;20046;-69
2022/07/28 00:37:23;;;;;;;4.10;1.52;;;;;;;16.17;nan;100877.88;2039935;29;20468;-69
2022/07/28 00:38:27;;;;;;;6.13;1.50;;;;;;;16.19;nan;100867.53;2039770;29;20039;-69
2022/07/28 00:39:29;;;;;;;3.78;1.30;;;;;;;16.16;nan;100879.78;2040556;29;20044;-68
2022/07/28 00:41:53;;;;;;;4.50;1.42;;;;;;;16.19;nan;100875.69;2035147;29;20051;-69
2022/07/28 00:42:55;;;;;;;6.35;1.27;;;;;;;16.15;nan;100869.28;2039904;29;20047;-69
2022/07/28 00:43:58;;;;;;;5.07;1.75;;;;;;;16.14;nan;100873.91;2032577;29;20476;-69
2022/07/28 00:45:03;;;;;;;6.13;1.30;;;;;;;16.12;nan;100872.59;2033409;29;20480;-69
2022/07/28 00:46:07;;;;;;;3.03;1.20;;;;;;;16.16;nan;100873.56;2032477;29;20060;-68
2022/07/28 00:47:08;;;;;;;4.82;1.20;;;;;;;16.16;nan;100870.88;2032652;29;20051;-69
2022/07/28 00:48:13;;;;;;;3.60;1.40;;;;;;;16.15;nan;100871.97;2040304;29;20047;-69
2022/07/28 00:49:17;;;;;;;4.38;1.30;;;;;;;16.13;nan;100875.00;2040226;29;20480;-69
2022/07/28 00:50:19;;;;;;;3.88;1.05;;;;;;;16.14;nan;100875.78;2040305;29;20036;-69
2022/07/28 00:51:25;;;;;;;7.25;1.50;;;;;;;16.17;nan;100864.31;2032424;29;20054;-69
2022/07/28 00:52:29;;;;;;;6.18;1.38;;;;;;;16.18;nan;100874.88;2033123;29;20040;-68
2022/07/28 00:53:34;;;;;;;3.05;1.08;;;;;;;16.19;nan;100862.09;2040120;29;20056;-71
2022/07/28 00:54:37;;;;;;;4.47;1.00;;;;;;;16.17;nan;100865.16;2041081;29;20074;-70
2022/07/28 00:55:41;;;;;;;4.72;1.10;;;;;;;16.17;nan;100858.91;2040210;29;20051;-70
2022/07/28 00:56:44;;;;;;;5.40;1.10;;;;;;;16.20;nan;100866.41;2032303;29;20044;-69
2022/07/28 00:57:50;;;;;;;6.30;1.10;;;;;;;16.17;nan;100854.28;2040854;29;20483;-69
2022/07/28 00:58:55;;;;;;;2.40;1.02;;;;;;;16.19;nan;100857.47;2047197;29;20083;-68
2022/07/28 00:59:58;;;;;;;1.77;1.00;;;;;;;16.20;nan;100858.28;2032557;29;20048;-68
2022/07/28 01:01:03;;;;;;;7.47;1.10;;;;;;;16.22;nan;100856.06;2032541;29;20147;-68
2022/07/28 01:02:06;;;;;;;4.85;1.60;;;;;;;16.20;nan;100863.69;2039411;29;20043;-69
2022/07/28 01:03:09;;;;;;;4.72;1.13;;;;;;;16.21;nan;100868.03;2028853;29;20043;-70
2022/07/28 01:04:11;;;;;;;2.85;1.20;;;;;;;16.25;nan;100860.06;2040294;29;20051;-70
2022/07/28 01:05:17;;;;;;;3.25;1.23;;;;;;;16.24;nan;100861.19;2047187;29;20035;-70
2022/07/28 01:06:31;;;;;;;3.75;1.50;;;;;;;16.26;nan;100857.03;2040040;29;20056;-69
2022/07/28 01:07:45;;;;;;;8.05;1.30;;;;;;;16.27;nan;100852.41;2032165;29;20044;-70
2022/07/28 01:08:58;;;;;;;6.10;1.10;;;;;;;16.25;nan;100860.06;2033771;29;20482;-69
2022/07/28 01:10:19;;;;;;;5.10;1.63;;;;;;;16.21;nan;100859.91;2039668;29;20043;-70
2022/07/28 01:11:31;;;;;;;6.57;1.10;;;;;;;16.22;nan;100861.50;2040778;29;20720;-70
2022/07/28 01:12:54;;;;;;;3.35;1.30;;;;;;;16.20;nan;100852.84;2032205;29;20043;-70
2022/07/28 01:14:16;;;;;;;2.60;1.00;;;;;;;16.20;nan;100847.44;2035571;29;20687;-69
2022/07/28 01:15:32;;;;;;;2.40;1.08;;;;;;;16.21;nan;100860.69;2032233;29;20063;-70
2022/07/28 01:16:44;;;;;;;4.03;1.38;;;;;;;16.20;nan;100856.38;2026584;29;20389;-70
2022/07/28 01:17:51;;;;;;;4.32;1.30;;;;;;;16.24;nan;100848.44;2032986;29;20071;-70
2022/07/28 01:19:07;;;;;;;5.35;1.30;;;;;;;16.25;nan;100855.44;2032470;29;20378;-70
2022/07/28 01:20:17;;;;;;;6.18;1.80;;;;;;;16.22;nan;100850.63;2039692;29;20052;-71
2022/07/28 01:21:32;;;;;;;2.70;1.00;;;;;;;16.20;nan;100853.69;2040844;29;20035;-70
2022/07/28 01:22:43;;;;;;;4.43;1.42;;;;;;;16.21;nan;100849.84;2041000;29;20046;-70
2022/07/28 01:24:24;;;;;;;4.50;1.58;;;;;;;16.23;nan;100849.53;2040446;29;20423;-70
2022/07/28 01:25:46;;;;;;;4.90;1.45;;;;;;;16.20;nan;100852.84;2001118;29;20042;-70
2022/07/28 01:27:09;;;;;;;3.20;1.70;;;;;;;16.18;nan;100857.81;2040243;29;20036;-70
2022/07/28 01:28:48;;;;;;;2.63;1.25;;;;;;;16.16;nan;100851.88;2032357;29;20048;-71
2022/07/28 01:30:04;;;;;;;2.72;1.10;;;;;;;16.15;nan;100855.72;2031560;29;20048;-71
2022/07/28 01:31:11;;;;;;;4.47;1.27;;;;;;;16.15;nan;100855.72;2026758;29;20053;-70
2022/07/28 01:32:24;;;;;;;3.15;1.27;;;;;;;16.14;nan;100856.78;2032797;29;20512;-70
2022/07/28 01:33:36;;;;;;;3.15;1.50;;;;;;;16.16;nan;100857.31;2032916;29;20052;-70
2022/07/28 01:34:48;;;;;;;3.20;1.20;;;;;;;16.19;nan;100851.25;2045753;29;20051;-71
2022/07/28 01:36:30;;;;;;;2.58;1.00;;;;;;;16.21;nan;100849.06;2038489;29;20693;-71
2022/07/28 01:37:38;;;;;;;7.63;1.42;;;;;;;16.20;nan;100853.69;2023935;29;20059;-71
2022/07/28 01:38:42;;;;;;;2.70;1.10;;;;;;;16.20;nan;100858.28;2025129;29;21112;-70
2022/07/28 01:39:51;;;;;;;4.22;1.15;;;;;;;16.20;nan;100848.25;2032809;29;20056;-70
2022/07/28 01:40:55;;;;;;;2.78;1.20;;;;;;;16.22;nan;100846.00;2040041;29;20051;-69
2022/07/28 01:42:01;;;;;;;5.85;1.45;;;;;;;16.16;nan;100854.59;2039845;29;20055;-71
2022/07/28 01:43:07;;;;;;;5.63;1.50;;;;;;;16.14;nan;100849.47;2039978;29;20031;-71
2022/07/28 01:44:14;;;;;;;5.55;1.30;;;;;;;16.14;nan;100848.66;2024657;29;20041;-71
2022/07/28 01:45:20;;;;;;;3.22;1.00;;;;;;;16.15;nan;100855.72;2026121;29;20040;-71
2022/07/28 01:46:24;;;;;;;3.35;1.60;;;;;;;16.16;nan;100851.88;2040110;29;20063;-71
2022/07/28 01:47:34;;;;;;;4.47;1.10;;;;;;;16.15;nan;100850.28;2039892;29;20492;-69
2022/07/28 01:48:38;;;;;;;2.87;0.90;;;;;;;16.17;nan;100853.47;2039838;29;20073;-71
2022/07/28 01:49:44;;;;;;;2.40;1.15;;;;;;;16.17;nan;100848.03;2039763;29;20283;-70
2022/07/28 01:50:51;;;;;;;4.50;1.10;;;;;;;16.15;nan;100855.72;2040728;29;20055;-71
2022/07/28 01:51:56;;;;;;;2.80;1.20;;;;;;;16.16;nan;100847.25;2037323;29;20456;-71
2022/07/28 01:53:02;;;;;;;4.80;1.42;;;;;;;16.18;nan;100852.38;2040207;29;20052;-71
2022/07/28 01:54:08;;;;;;;4.60;1.20;;;;;;;16.12;nan;100851.69;2031667;29;20047;-71
2022/07/28 01:55:13;;;;;;;3.10;1.27;;;;;;;16.11;nan;100850.09;2032210;29;20052;-71
2022/07/28 01:56:18;;;;;;;4.25;1.15;;;;;;;16.11;nan;100852.00;2039908;29;20051;-71
2022/07/28 01:57:22;;;;;;;3.85;1.20;;;;;;;16.11;nan;100850.09;2040452;29;20075;-70
2022/07/28 01:58:27;;;;;;;4.63;1.70;;;;;;;16.08;nan;100849.88;2039899;29;20044;-71
2022/07/28 01:59:30;;;;;;;3.42;1.30;;;;;;;16.09;nan;100843.38;2039723;29;20027;-70
2022/07/28 02:00:35;;;;;;;4.20;1.20;;;;;;;16.09;nan;100841.47;2032066;29;20044;-70
2022/07/28 02:01:43;;;;;;;3.03;1.00;;;;;;;16.09;nan;100840.66;2024416;29;20043;-70
2022/07/28 02:02:48;;;;;;;3.50;1.65;;;;;;;16.07;nan;100842.88;2025093;29;20045;-70
2022/07/28 02:03:53;;;;;;;8.57;1.40;;;;;;;16.12;nan;100850.91;2032085;29;20047;-70
2022/07/28 02:04:57;;;;;;;3.75;1.30;;;;;;;16.13;nan;100847.88;2038352;29;20066;-70
2022/07/28 02:06:04;;;;;;;9.27;1.55;;;;;;;16.13;nan;100850.56;2039603;29;20040;-70
2022/07/28 02:07:10;;;;;;;4.82;1.17;;;;;;;16.11;nan;100852.81;2033314;29;20125;-70
2022/07/28 02:08:14;;;;;;;4.72;1.38;;;;;;;16.11;nan;100852.00;2032335;29;20048;-70
2022/07/28 02:09:18;;;;;;;4.45;1.23;;;;;;;16.12;nan;100854.41;2032573;29;20079;-70
2022/07/28 02:10:21;;;;;;;6.68;1.27;;;;;;;16.12;nan;100856.31;2032328;29;20059;-70
2022/07/28 02:11:41;;;;;;;3.92;1.30;;;;;;;16.10;nan;100856.63;2032319;29;20064;-70
2022/07/28 02:12:48;;;;;;;9.23;1.20;;;;;;;16.16;nan;100857.31;2024547;29;20048;-70
2022/07/28 02:13:52;;;;;;;4.00;1.13;;;;;;;16.20;nan;100866.41;2033274;29;20032;-70
2022/07/28 02:14:57;;;;;;;4.25;1.10;;;;;;;16.19;nan;100860.19;2033233;29;20476;-70
2022/07/28 02:16:02;;;;;;;4.32;1.20;;;;;;;16.20;nan;100863.69;2026167;29;20062;-70
2022/07/28 02:17:10;;;;;;;2.75;1.10;;;;;;;16.18;nan;100858.59;2040795;29;20055;-70
2022/07/28 02:18:12;;;;;;;2.15;1.25;;;;;;;16.18;nan;100874.88;2040035;29;20059;-70
2022/07/28 02:19:19;;;;;;;6.15;1.02;;;;;;;16.16;nan;100860.00;2026790;29;20040;-70
2022/07/28 02:20:27;;;;;;;5.63;1.70;;;;;;;16.17;nan;100869.75;2034026;29;20439;-70
2022/07/28 02:21:31;;;;;;;5.90;1.27;;;;;;;16.17;nan;100867.03;2042221;29;20051;-69
2022/07/28 02:22:38;;;;;;;5.47;1.15;;;;;;;16.14;nan;100868.47;2041430;29;20083;-70
2022/07/28 02:23:47;;;;;;;4.22;1.50;;;;;;;16.16;nan;100865.44;2033808;29;20444;-70
2022/07/28 02:24:53;;;;;;;1.85;0.95;;;;;;;16.17;nan;100864.31;2034611;29;20440;-70
2022/07/28 02:25:57;;;;;;;4.25;1.10;;;;;;;16.14;nan;100863.06;2041716;29;20039;-70
2022/07/28 02:27:05;;;;;;;8.05;1.17;;;;;;;16.13;nan;100869.56;2042019;29;20523;-70
2022/07/28 02:28:10;;;;;;;3.00;1.40;;;;;;;16.13;nan;100866.84;2042335;29;20047;-70
2022/07/28 02:29:15;;;;;;;3.05;1.35;;;;;;;16.13;nan;100866.06;2041562;29;20058;-70
2022/07/28 02:30:42;;;;;;;4.00;1.20;;;;;;;16.14;nan;100870.34;2033286;29;20040;-70
2022/07/28 02:31:50;;;;;;;7.85;1.20;;;;;;;16.14;nan;100862.22;2029921;29;20040;-70
2022/07/28 02:33:06;;;;;;;5.03;1.42;;;;;;;16.15;nan;100855.72;2034210;29;20048;-70
2022/07/28 02:34:12;;;;;;;5.18;1.15;;;;;;;16.13;nan;100864.13;2027759;29;20063;-70
2022/07/28 02:35:36;;;;;;;4.30;1.40;;;;;;;16.13;nan;100860.63;2034018;29;20048;-70
2022/07/28 02:36:41;;;;;;;4.80;1.45;;;;;;;16.10;nan;100863.97;2040536;29;20058;-69
2022/07/28 02:37:50;;;;;;;6.50;1.45;;;;;;;16.12;nan;100867.19;2048394;29;20131;-70
2022/07/28 02:39:03;;;;;;;5.53;1.13;;;;;;;16.11;nan;100865.56;2041533;29;20048;-69
2022/07/28 02:40:13;;;;;;;8.02;1.70;;;;;;;16.07;nan;100859.16;2041989;29;20043;-69
2022/07/28 02:41:23;;;;;;;4.72;1.17;;;;;;;16.03;nan;100863.59;2042077;29;20052;-69
2022/07/28 02:42:29;;;;;;;3.05;1.00;;;;;;;16.01;nan;100857.66;2034800;29;20051;-69
2022/07/28 02:43:38;;;;;;;5.00;1.50;;;;;;;16.03;nan;100864.38;2033993;29;20059;-69
2022/07/28 02:44:45;;;;;;;1.88;1.00;;;;;;;16.07;nan;100864.56;2040024;29;20051;-70
2022/07/28 02:45:52;;;;;;;4.75;1.30;;;;;;;16.08;nan;100858.03;2033253;29;20051;-69
2022/07/28 02:46:57;;;;;;;3.97;1.10;;;;;;;16.11;nan;100866.38;2040557;29;20035;-70
2022/07/28 02:48:06;;;;;;;4.53;1.13;;;;;;;16.12;nan;100859.03;2039158;29;20050;-69
2022/07/28 02:49:23;;;;;;;4.53;1.25;;;;;;;16.08;nan;100866.16;2041625;29;20542;-69
2022/07/28 02:50:27;;;;;;;2.25;1.50;;;;;;;16.06;nan;100863.78;2025665;29;20052;-69
2022/07/28 02:51:36;;;;;;;10.60;1.80;;;;;;;16.06;nan;100868.41;2026713;29;20546;-70
2022/07/28 02:52:42;;;;;;;5.32;1.92;;;;;;;16.09;nan;100862.38;2031679;29;20047;-69
2022/07/28 02:53:45;;;;;;;6.72;1.63;;;;;;;16.08;nan;100866.16;2033318;29;20495;-69
2022/07/28 02:54:49;;;;;;;5.65;1.90;;;;;;;16.06;nan;100863.78;2025144;29;20091;-69
2022/07/28 02:55:51;;;;;;;5.65;2.10;;;;;;;16.06;nan;100868.41;2026132;29;20181;-69
2022/07/28 02:57:00;;;;;;;3.30;2.00;;;;;;;16.05;nan;100864.09;2033453;29;20063;-69
2022/07/28 02:58:06;;;;;;;7.78;2.13;;;;;;;16.04;nan;100865.19;2024924;29;20072;-69
2022/07/28 02:59:11;;;;;;;10.18;2.17;;;;;;;16.01;nan;100865.81;2032839;29;20063;-69
2022/07/28 03:00:14;;;;;;;4.18;1.80;;;;;;;16.04;nan;100870.59;2041829;29;20032;-69
2022/07/28 03:01:18;;;;;;;6.25;2.03;;;;;;;16.04;nan;100876.03;2040756;29;20509;-69
2022/07/28 03:02:20;;;;;;;3.45;1.75;;;;;;;16.01;nan;100876.66;2029590;29;20048;-69
2022/07/28 03:03:23;;;;;;;5.45;1.90;;;;;;;16.01;nan;100877.44;2025879;29;20045;-69
2022/07/28 03:05:46;;;;;;;6.93;1.52;;;;;;;16.02;nan;100873.66;2033244;29;20040;-70
2022/07/28 03:06:53;;;;;;;4.25;1.70;;;;;;;16.03;nan;100869.03;2034433;29;20036;-70
2022/07/28 03:07:57;;;;;;;4.28;1.50;;;;;;;16.05;nan;100872.22;2035206;29;20052;-70
2022/07/28 03:08:59;;;;;;;9.05;2.00;;;;;;;16.04;nan;100873.31;2049162;29;20066;-70
2022/07/28 03:10:04;;;;;;;5.95;1.70;;;;;;;16.06;nan;100868.41;2047893;29;20054;-69
2022/07/28 03:11:08;;;;;;;3.17;1.20;;;;;;;15.99;nan;100869.63;2033306;29;20056;-69
2022/07/28 03:12:11;;;;;;;4.28;1.27;;;;;;;16.03;nan;100866.31;2033764;29;20051;-70
2022/07/28 03:13:16;;;;;;;4.20;1.27;;;;;;;16.01;nan;100865.81;2041431;29;20408;-69
2022/07/28 03:14:19;;;;;;;4.38;1.27;;;;;;;16.02;nan;100870.13;2048921;29;20066;-69
2022/07/28 03:15:22;;;;;;;2.90;1.05;;;;;;;15.97;nan;100871.84;2048354;29;20047;-69
2022/07/28 03:16:27;;;;;;;4.40;1.40;;;;;;;15.97;nan;100871.84;2041771;29;20052;-69
2022/07/28 03:17:29;;;;;;;5.18;1.35;;;;;;;15.99;nan;100875.06;2033395;29;20055;-69
2022/07/28 03:18:32;;;;;;;4.60;1.20;;;;;;;15.95;nan;100873.25;2025836;29;20052;-68
2022/07/28 03:19:36;;;;;;;3.88;1.58;;;;;;;15.94;nan;100874.38;2033766;29;20048;-69
2022/07/28 03:20:39;;;;;;;3.83;1.30;;;;;;;15.92;nan;100869.25;2041327;29;20051;-69
2022/07/28 03:21:48;;;;;;;4.80;1.00;;;;;;;15.96;nan;100877.59;2042039;29;20087;-70
2022/07/28 03:22:49;;;;;;;3.63;1.20;;;;;;;15.97;nan;100877.25;2025630;29;20535;-69
2022/07/28 03:23:55;;;;;;;5.10;1.10;;;;;;;15.99;nan;100879.69;2025309;29;20614;-71
2022/07/28 03:24:59;;;;;;;6.55;1.20;;;;;;;16.03;nan;100879.88;2041140;29;20035;-71
2022/07/28 03:26:32;;;;;;;2.85;1.10;;;;;;;16.01;nan;100877.44;2041434;29;20515;-71
2022/07/28 03:27:38;;;;;;;4.05;1.48;;;;;;;16.03;nan;100875.25;2036196;29;20084;-70
2022/07/28 03:28:43;;;;;;;4.22;1.75;;;;;;;16.03;nan;100879.88;2041308;29;20039;-70
2022/07/28 03:29:49;;;;;;;2.63;1.00;;;;;;;16.01;nan;100876.66;2041230;29;20046;-70
2022/07/28 03:31:01;;;;;;;4.10;1.20;;;;;;;16.06;nan;100873.81;2040479;29;20105;-71
2022/07/28 03:32:06;;;;;;;4.75;1.17;;;;;;;16.13;nan;100879.63;2049287;29;20039;-71
2022/07/28 03:33:09;;;;;;;3.72;1.40;;;;;;;16.11;nan;100876.41;2041109;29;20047;-70
2022/07/28 03:34:11;;;;;;;6.25;1.50;;;;;;;16.12;nan;100889.66;2033651;29;20055;-71
2022/07/28 03:35:14;;;;;;;5.07;1.90;;;;;;;16.15;nan;100882.84;2041102;29;20047;-71
2022/07/28 03:36:21;;;;;;;2.88;1.48;;;;;;;16.26;nan;100873.31;2033296;29;20040;-71
2022/07/28 03:37:37;;;;;;;5.22;1.30;;;;;;;16.37;nan;100880.13;2034303;29;20492;-69
2022/07/28 03:38:58;;;;;;;6.57;1.42;;;;;;;16.41;nan;100881.09;2038582;29;20534;-68
2022/07/28 03:40:02;;;;;;;5.13;1.50;;;;;;;16.45;nan;100887.50;2041115;29;20039;-70
2022/07/28 03:41:09;;;;;;;7.93;1.35;;;;;;;16.59;nan;100881.22;2033352;29;20480;-71
2022/07/28 03:42:16;;;;;;;7.60;1.35;;;;;;;16.71;nan;100878.72;2026138;29;20043;-71
2022/07/28 03:43:21;;;;;;;2.13;1.00;;;;;;;16.84;nan;100886.00;2026345;29;20044;-71
2022/07/28 03:44:26;;;;;;;4.20;1.27;;;;;;;16.88;nan;100889.69;2033733;29;20042;-71
2022/07/28 03:45:30;;;;;;;3.80;0.90;;;;;;;16.91;nan;100880.91;2048401;29;20055;-67
2022/07/28 03:46:32;;;;;;;3.08;1.10;;;;;;;16.97;nan;100884.28;2039426;29;20048;-69
2022/07/28 03:47:34;;;;;;;5.75;1.27;;;;;;;17.02;nan;100881.41;2032588;29;20078;-69
2022/07/28 03:48:35;;;;;;;2.88;1.15;;;;;;;16.98;nan;100882.38;2041013;29;20035;-70
2022/07/28 03:49:38;;;;;;;3.60;1.08;;;;;;;16.88;nan;100889.69;2041232;29;20515;-70
2022/07/28 03:50:42;;;;;;;4.30;1.65;;;;;;;16.79;nan;100879.91;2041549;29;20372;-70
2022/07/28 03:51:43;;;;;;;1.83;0.95;;;;;;;16.74;nan;100882.69;2033395;29;20048;-70
2022/07/28 03:52:47;;;;;;;1.58;1.00;;;;;;;16.66;nan;100881.56;2024997;29;20074;-69
2022/07/28 03:53:52;;;;;;;5.30;1.20;;;;;;;16.64;nan;100891.91;2033179;29;20396;-70
2022/07/28 03:54:54;;;;;;;4.63;1.00;;;;;;;16.60;nan;100883.59;2041587;29;20035;-70
2022/07/28 03:55:56;;;;;;;7.32;1.00;;;;;;;16.57;nan;100880.72;2033395;29;20043;-70
2022/07/28 03:57:04;;;;;;;2.80;1.02;;;;;;;16.55;nan;100880.22;2025295;29;20527;-69
2022/07/28 03:58:06;;;;;;;3.10;1.40;;;;;;;16.51;nan;100881.94;2010719;29;20053;-70
2022/07/28 03:59:11;;;;;;;1.58;0.80;;;;;;;16.48;nan;100882.56;2017845;29;20064;-69
2022/07/28 04:00:15;;;;;;;2.60;0.93;;;;;;;16.43;nan;100878.88;2040987;29;20042;-69
2022/07/28 04:01:17;;;;;;;8.30;1.33;;;;;;;16.44;nan;100874.25;2040881;29;20047;-71
2022/07/28 04:02:18;;;;;;;4.07;1.10;;;;;;;16.43;nan;100881.59;2048983;28;20035;-71
2022/07/28 04:03:21;;;;;;;5.40;1.20;;;;;;;16.40;nan;100876.78;2048316;29;20055;-71
2022/07/28 04:04:24;;;;;;;4.00;1.05;;;;;;;16.39;nan;100880.63;2040621;29;20055;-71
2022/07/28 04:05:26;;;;;;;5.55;0.85;;;;;;;16.44;nan;100877.75;2024593;29;20060;-71
2022/07/28 04:06:29;;;;;;;4.95;1.60;;;;;;;16.51;nan;100884.66;2017912;29;20071;-70
2022/07/28 04:07:30;;;;;;;3.85;1.15;;;;;;;16.55;nan;100882.91;2032930;29;20047;-71
2022/07/28 04:08:33;;;;;;;6.03;1.13;;;;;;;16.63;nan;100887.59;2032975;29;20083;-71
2022/07/28 04:09:35;;;;;;;2.15;1.27;;;;;;;16.80;nan;100887.75;2033553;29;20056;-71
2022/07/28 04:10:37;;;;;;;4.10;1.15;;;;;;;17.01;nan;100893.41;2033184;29;20048;-71
2022/07/28 04:11:39;;;;;;;3.28;0.90;;;;;;;17.17;nan;100891.06;2033033;29;20419;-71
2022/07/28 04:12:56;;;;;;;2.00;1.00;;;;;;;17.30;nan;100884.72;2040610;29;20055;-71
2022/07/28 04:13:58;;;;;;;5.32;1.02;;;;;;;17.42;nan;100889.53;2040798;29;20055;-71
2022/07/28 04:15:13;;;;;;;3.85;1.30;;;;;;;17.59;nan;100884.16;2032955;29;20147;-71
2022/07/28 04:16:15;;;;;;;2.33;0.95;;;;;;;17.71;nan;100894.38;2033931;29;20064;-71
2022/07/28 04:17:18;;;;;;;3.80;1.25;;;;;;;17.89;nan;100894.44;2025241;29;20051;-71
2022/07/28 04:18:22;;;;;;;3.92;0.95;;;;;;;18.00;nan;100887.56;2025125;29;20052;-71
2022/07/28 04:19:23;;;;;;;7.70;1.35;;;;;;;18.12;nan;100889.63;2033436;29;20044;-70
2022/07/28 04:20:28;;;;;;;1.25;0.80;;;;;;;18.22;nan;100884.69;2032853;29;20052;-70
2022/07/28 04:21:29;;;;;;;6.53;1.23;;;;;;;18.30;nan;100889.31;2025201;29;20052;-69
2022/07/28 04:22:31;;;;;;;1.88;1.00;;;;;;;18.40;nan;100887.38;2032770;29;20056;-68
2022/07/28 04:23:33;;;;;;;6.10;1.00;;;;;;;18.49;nan;100893.59;2032894;29;20412;-71
2022/07/28 04:24:38;;;;;;;4.78;1.02;;;;;;;18.56;nan;100891.16;2040995;29;20047;-70
2022/07/28 04:25:40;;;;;;;5.15;1.20;;;;;;;18.65;nan;100900.13;2040712;29;20054;-69
2022/07/28 04:26:42;;;;;;;3.40;1.08;;;;;;;18.73;nan;100891.16;2040482;29;20054;-69
2022/07/28 04:27:46;;;;;;;3.63;0.98;;;;;;;18.79;nan;100883.63;2032866;29;20036;-69
2022/07/28 04:28:50;;;;;;;4.72;1.08;;;;;;;18.85;nan;100895.13;2040157;29;20043;-71
2022/07/28 04:29:52;;;;;;;3.65;1.00;;;;;;;18.90;nan;100900.41;2038960;29;20059;-70
2022/07/28 04:30:55;;;;;;;4.05;1.13;;;;;;;19.00;nan;100905.50;2037533;29;20353;-70
2022/07/28 04:31:57;;;;;;;4.38;1.00;;;;;;;19.05;nan;100899.88;2038249;29;20047;-70
2022/07/28 04:32:59;;;;;;;6.03;1.02;;;;;;;19.12;nan;100897.44;2036378;29;20051;-70
2022/07/28 04:34:01;;;;;;;4.85;1.08;;;;;;;19.18;nan;100896.13;2032544;29;20067;-69
2022/07/28 04:35:06;;;;;;;3.50;1.10;;;;;;;19.27;nan;100893.34;2024998;29;20501;-70
2022/07/28 04:36:10;;;;;;;5.55;1.38;;;;;;;19.37;nan;100900.34;2032717;29;20059;-70
2022/07/28 04:37:13;;;;;;;6.63;1.20;;;;;;;19.43;nan;100894.38;2039603;29;20132;-70
2022/07/28 04:38:16;;;;;;;2.30;0.98;;;;;;;19.49;nan;100895.00;2039849;29;20059;-71
2022/07/28 04:39:20;;;;;;;2.22;0.93;;;;;;;19.59;nan;100900.06;2039312;29;20044;-70
2022/07/28 04:40:25;;;;;;;4.72;1.20;;;;;;;19.72;nan;100898.22;2045960;29;20051;-71
2022/07/28 04:41:27;;;;;;;5.75;1.20;;;;;;;19.83;nan;100904.06;2031991;29;20064;-70
2022/07/28 04:42:29;;;;;;;6.25;1.25;;;;;;;19.77;nan;100899.97;2031631;29;20036;-70
2022/07/28 04:43:32;;;;;;;3.67;0.88;;;;;;;19.93;nan;100900.97;2031110;29;20603;-70
2022/07/28 04:44:41;;;;;;;8.15;1.35;;;;;;;20.06;nan;100902.63;2031553;29;20059;-70
2022/07/28 04:45:45;;;;;;;6.57;1.20;;;;;;;20.16;nan;100906.06;2030678;29;20063;-69
2022/07/28 04:46:47;;;;;;;5.18;1.00;;;;;;;20.04;nan;100904.88;2032061;29;20067;-69
2022/07/28 04:47:52;;;;;;;1.77;1.00;;;;;;;19.87;nan;100905.03;2039090;29;20043;-69
2022/07/28 04:48:56;;;;;;;3.83;0.95;;;;;;;19.75;nan;100907.69;2024190;29;20452;-68
2022/07/28 04:49:58;;;;;;;4.30;1.08;;;;;;;19.66;nan;100908.53;2024303;29;20512;-68
2022/07/28 04:51:00;;;;;;;2.25;1.02;;;;;;;19.62;nan;100909.50;2029961;29;20404;-68
2022/07/28 04:52:07;;;;;;;4.93;1.00;;;;;;;19.77;nan;100902.72;2024885;29;20051;-68
2022/07/28 04:53:08;;;;;;;2.83;1.35;;;;;;;19.63;nan;100917.34;2031643;29;20806;-69
2022/07/28 04:54:13;;;;;;;3.40;0.85;;;;;;;19.61;nan;100907.91;2031541;29;20055;-68
2022/07/28 04:55:19;;;;;;;4.82;1.10;;;;;;;19.45;nan;100899.47;2032527;29;20119;-68
2022/07/28 04:56:21;;;;;;;3.85;1.10;;;;;;;19.35;nan;100917.03;2040287;29;20067;-68
2022/07/28 04:57:28;;;;;;;5.45;1.20;;;;;;;19.28;nan;100908.56;2031000;29;20064;-69
2022/07/28 04:58:30;;;;;;;7.80;1.45;;;;;;;19.17;nan;100910.88;2039205;29;20062;-68
2022/07/28 04:59:34;;;;;;;6.43;1.25;;;;;;;19.10;nan;100916.00;2038999;29;20063;-69
2022/07/28 05:00:36;;;;;;;6.60;1.00;;;;;;;19.00;nan;100908.22;2039233;29;20523;-69
2022/07/28 05:01:39;;;;;;;3.88;1.10;;;;;;;18.90;nan;100914.03;2030486;29;20052;-66
2022/07/28 05:02:44;;;;;;;5.00;1.08;;;;;;;18.78;nan;100903.81;2023156;29;20075;-78
2022/07/28 05:03:46;;;;;;;11.15;1.17;;;;;;;18.72;nan;100905.91;2039209;29;20040;-67
2022/07/28 05:04:48;;;;;;;3.40;1.25;;;;;;;18.67;nan;100916.94;2039470;29;20658;-68
2022/07/28 05:05:56;;;;;;;5.80;0.90;;;;;;;18.63;nan;100917.91;2030450;29;20137;-67
2022/07/28 05:07:01;;;;;;;2.97;0.90;;;;;;;18.56;nan;100915.69;2030971;29;20063;-67
2022/07/28 05:08:03;;;;;;;5.20;1.95;;;;;;;18.44;nan;100921.81;2043070;29;20063;-68
2022/07/28 05:09:12;;;;;;;5.38;1.20;;;;;;;18.44;nan;100913.63;2032270;29;20060;-66
2022/07/28 05:10:16;;;;;;;5.20;1.05;;;;;;;18.43;nan;100920.19;2026375;29;20040;-65
2022/07/28 05:11:18;;;;;;;4.40;1.40;;;;;;;18.39;nan;100916.50;2023405;29;20536;-67
2022/07/28 05:12:23;;;;;;;6.65;1.33;;;;;;;18.31;nan;100917.31;2031257;29;20513;-68
2022/07/28 05:13:27;;;;;;;5.32;1.35;;;;;;;18.26;nan;100920.22;2038427;29;20044;-70
2022/07/28 05:14:30;;;;;;;5.80;1.20;;;;;;;18.22;nan;100920.06;2023637;29;20053;-68
2022/07/28 05:15:33;;;;;;;8.57;1.00;;;;;;;18.19;nan;100925.31;2024674;29;20071;-67
2022/07/28 05:16:40;;;;;;;4.18;1.33;;;;;;;18.18;nan;100919.09;2022516;29;20051;-67